createdAt,value
2018-04-16T00:00:07.017Z,15.96
2018-04-16T00:01:07.000Z,16.00
2018-04-16T00:02:07.053Z,16.03
2018-04-16T00:03:07.033Z,16.00
2018-04-16T00:04:07.075Z,16.02
2018-04-16T00:05:07.051Z,15.99
2018-04-16T00:06:07.107Z,15.98
2018-04-16T00:07:07.063Z,15.83
2018-04-16T00:08:07.119Z,15.85
2018-04-16T00:09:07.091Z,15.88
2018-04-16T00:10:07.109Z,15.85
2018-04-16T00:11:07.173Z,15.88
2018-04-16T00:12:07.136Z,15.80
2018-04-16T00:13:07.144Z,15.76
2018-04-16T00:14:07.153Z,15.75
2018-04-16T00:15:07.166Z,15.80
2018-04-16T00:16:07.241Z,15.81
2018-04-16T00:17:07.185Z,15.85
2018-04-16T00:18:07.203Z,15.85
2018-04-16T00:19:07.230Z,15.88
2018-04-16T00:20:07.229Z,15.96
2018-04-16T00:21:07.260Z,15.94
2018-04-16T00:22:07.251Z,15.99
2018-04-16T00:23:07.256Z,15.99
2018-04-16T00:24:07.265Z,15.83
2018-04-16T00:25:07.268Z,15.94
2018-04-16T00:26:07.321Z,15.84
2018-04-16T00:27:07.289Z,15.75
2018-04-16T00:28:07.307Z,15.78
2018-04-16T00:29:07.312Z,15.73
2018-04-16T00:30:07.319Z,15.72
2018-04-16T00:31:07.389Z,15.69
2018-04-16T00:32:07.344Z,15.70
2018-04-16T00:33:07.367Z,15.67
2018-04-16T00:34:07.382Z,15.67
2018-04-16T00:35:07.392Z,15.57
2018-04-16T00:36:07.428Z,15.63
2018-04-16T00:37:07.403Z,15.52
2018-04-16T00:38:07.440Z,15.48
2018-04-16T00:39:07.442Z,15.44
2018-04-16T00:40:07.449Z,15.54
2018-04-16T00:41:07.459Z,15.55
2018-04-16T00:42:07.500Z,15.55
2018-04-16T00:43:07.466Z,15.47
2018-04-16T00:44:07.476Z,15.48
2018-04-16T00:45:07.500Z,15.51
2018-04-16T00:46:07.505Z,15.60
2018-04-16T00:47:07.577Z,15.50
2018-04-16T00:48:07.549Z,15.51
2018-04-16T00:49:07.547Z,15.52
2018-04-16T00:50:07.548Z,15.60
2018-04-16T00:51:07.557Z,15.52
2018-04-16T00:52:07.627Z,15.60
2018-04-16T00:53:07.599Z,15.54
2018-04-16T00:54:07.593Z,15.45
2018-04-16T00:55:07.615Z,15.55
2018-04-16T00:56:07.636Z,15.52
2018-04-16T00:57:07.702Z,15.57
2018-04-16T00:58:07.645Z,15.60
2018-04-16T00:59:07.658Z,15.45
2018-04-16T01:00:07.651Z,15.51
2018-04-16T01:01:07.687Z,15.52
2018-04-16T01:02:07.723Z,15.51
2018-04-16T01:03:07.697Z,15.48
2018-04-16T01:04:07.705Z,15.50
2018-04-16T01:05:07.715Z,15.48
2018-04-16T01:06:07.734Z,15.52
2018-04-16T01:07:07.784Z,15.55
2018-04-16T01:08:07.789Z,15.54
2018-04-16T01:09:07.766Z,15.57
2018-04-16T01:10:07.776Z,15.50
2018-04-16T01:11:07.778Z,15.57
2018-04-16T01:12:07.797Z,15.62
2018-04-16T01:13:07.845Z,15.65
2018-04-16T01:14:07.842Z,15.69
2018-04-16T01:15:07.817Z,15.67
2018-04-16T01:16:07.850Z,15.48
2018-04-16T01:17:07.842Z,15.60
2018-04-16T01:18:07.919Z,15.57
2018-04-16T01:19:07.881Z,15.52
2018-04-16T01:20:07.893Z,15.51
2018-04-16T01:21:07.899Z,15.48
2018-04-16T01:22:07.894Z,15.50
2018-04-16T01:23:07.962Z,15.45
2018-04-16T01:24:07.931Z,15.51
2018-04-16T01:25:07.949Z,15.52
2018-04-16T01:26:07.949Z,15.45
2018-04-16T01:27:07.976Z,15.44
2018-04-16T01:28:08.009Z,15.45
2018-04-16T01:29:08.055Z,15.50
2018-04-16T01:30:07.989Z,15.41
2018-04-16T01:31:08.000Z,15.41
2018-04-16T01:32:08.027Z,15.45
2018-04-16T01:33:08.028Z,15.41
2018-04-16T01:34:08.075Z,15.44
2018-04-16T01:35:08.057Z,15.39
2018-04-16T01:36:08.125Z,15.45
2018-04-16T01:37:08.071Z,15.45
2018-04-16T01:38:08.101Z,15.35
2018-04-16T01:39:08.095Z,15.26
2018-04-16T01:40:08.127Z,15.19
2018-04-16T01:41:08.112Z,15.12
2018-04-16T01:42:08.172Z,15.12
2018-04-16T01:43:08.132Z,15.08
2018-04-16T01:44:08.145Z,15.12
2018-04-16T01:45:08.185Z,15.14
2018-04-16T01:46:08.180Z,15.11
2018-04-16T01:47:08.251Z,15.18
2018-04-16T01:48:08.196Z,15.12
2018-04-16T01:49:08.207Z,15.10
2018-04-16T01:50:08.220Z,15.07
2018-04-16T01:51:08.249Z,15.10
2018-04-16T01:52:08.266Z,15.15
2018-04-16T01:53:08.254Z,15.23
2018-04-16T01:54:08.267Z,15.07
2018-04-16T01:55:08.320Z,15.10
2018-04-16T01:56:08.287Z,15.07
2018-04-16T01:57:08.284Z,15.12
2018-04-16T01:58:08.331Z,15.02
2018-04-16T01:59:08.308Z,14.99
2018-04-16T02:00:08.326Z,14.94
2018-04-16T02:01:08.376Z,15.04
2018-04-16T02:02:08.336Z,14.97
2018-04-16T02:03:08.363Z,14.90
2018-04-16T02:04:08.374Z,14.89
2018-04-16T02:05:08.379Z,14.87
2018-04-16T02:06:08.405Z,14.93
2018-04-16T02:07:08.403Z,14.81
2018-04-16T02:08:08.420Z,14.77
2018-04-16T02:09:08.458Z,14.87
2018-04-16T02:10:08.429Z,14.78
2018-04-16T02:11:08.460Z,14.87
2018-04-16T02:12:08.461Z,14.86
2018-04-16T02:13:08.467Z,14.78
2018-04-16T02:14:08.510Z,14.71
2018-04-16T02:15:08.488Z,14.67
2018-04-16T02:16:08.507Z,14.68
2018-04-16T02:17:08.500Z,14.77
2018-04-16T02:18:08.508Z,14.77
2018-04-16T02:19:08.577Z,14.86
2018-04-16T02:20:08.546Z,14.77
2018-04-16T02:21:08.545Z,14.67
2018-04-16T02:22:08.560Z,14.74
2018-04-16T02:23:08.573Z,14.66
2018-04-16T02:24:08.628Z,14.62
2018-04-16T02:25:08.597Z,14.52
2018-04-16T02:26:08.606Z,14.66
2018-04-16T02:27:08.617Z,14.70
2018-04-16T02:28:08.625Z,14.61
2018-04-16T02:29:08.660Z,14.51
2018-04-16T02:30:08.639Z,14.51
2018-04-16T02:31:08.666Z,14.43
2018-04-16T02:32:08.654Z,14.40
2018-04-16T02:33:08.688Z,14.37
2018-04-16T02:34:08.707Z,14.53
2018-04-16T02:35:08.767Z,14.51
2018-04-16T02:36:08.719Z,14.51
2018-04-16T02:37:08.715Z,14.52
2018-04-16T02:38:08.722Z,14.53
2018-04-16T02:39:08.738Z,14.51
2018-04-16T02:40:08.776Z,14.48
2018-04-16T02:41:08.763Z,14.40
2018-04-16T02:42:08.786Z,14.38
2018-04-16T02:43:08.786Z,14.34
2018-04-16T02:44:08.785Z,14.33
2018-04-16T02:45:08.831Z,14.44
2018-04-16T02:46:08.804Z,14.33
2018-04-16T02:47:08.829Z,14.44
2018-04-16T02:48:08.832Z,14.48
2018-04-16T02:49:08.849Z,14.51
2018-04-16T02:50:08.885Z,14.49
2018-04-16T02:51:08.865Z,14.51
2018-04-16T02:52:08.875Z,14.49
2018-04-16T02:53:08.906Z,14.51
2018-04-16T02:54:08.897Z,14.48
2018-04-16T02:55:08.961Z,14.52
2018-04-16T02:56:08.926Z,14.51
2018-04-16T02:57:08.934Z,14.45
2018-04-16T02:58:08.941Z,14.51
2018-04-16T02:59:08.938Z,14.51
2018-04-16T03:00:09.001Z,14.49
2018-04-16T03:01:08.964Z,14.49
2018-04-16T03:02:08.971Z,14.51
2018-04-16T03:03:08.993Z,14.61
2018-04-16T03:04:08.994Z,14.58
2018-04-16T03:05:09.031Z,14.53
2018-04-16T03:06:09.042Z,14.52
2018-04-16T03:07:09.036Z,14.63
2018-04-16T03:08:09.035Z,14.68
2018-04-16T03:09:09.062Z,14.66
2018-04-16T03:10:09.112Z,14.68
2018-04-16T03:11:09.091Z,14.67
2018-04-16T03:12:09.078Z,14.67
2018-04-16T03:13:09.091Z,14.74
2018-04-16T03:14:09.110Z,14.78
2018-04-16T03:15:09.177Z,14.78
2018-04-16T03:16:09.134Z,14.81
2018-04-16T03:17:09.131Z,14.74
2018-04-16T03:18:09.164Z,14.77
2018-04-16T03:19:09.165Z,14.89
2018-04-16T03:20:09.193Z,14.82
2018-04-16T03:21:09.185Z,14.74
2018-04-16T03:22:09.193Z,14.81
2018-04-16T03:23:09.217Z,14.85
2018-04-16T03:24:09.222Z,14.90
2018-04-16T03:25:09.244Z,14.92
2018-04-16T03:26:09.243Z,15.00
2018-04-16T03:27:09.251Z,14.99
2018-04-16T03:28:09.252Z,14.96
2018-04-16T03:29:09.259Z,15.07
2018-04-16T03:30:09.305Z,15.12
2018-04-16T03:31:09.282Z,15.10
2018-04-16T03:32:09.302Z,15.17
2018-04-16T03:33:09.334Z,15.22
2018-04-16T03:34:09.349Z,15.23
2018-04-16T03:35:09.381Z,15.22
2018-04-16T03:36:09.408Z,15.23
2018-04-16T03:37:09.368Z,15.23
2018-04-16T03:38:09.374Z,15.19
2018-04-16T03:39:09.375Z,15.19
2018-04-16T03:40:09.393Z,15.26
2018-04-16T03:41:09.440Z,15.36
2018-04-16T03:42:09.400Z,15.29
2018-04-16T03:43:09.409Z,15.26
2018-04-16T03:44:09.454Z,15.27
2018-04-16T03:45:09.441Z,15.35
2018-04-16T03:46:09.499Z,15.33
2018-04-16T03:47:09.451Z,15.41
2018-04-16T03:48:09.491Z,15.41
2018-04-16T03:49:09.487Z,15.41
2018-04-16T03:50:09.490Z,15.41
2018-04-16T03:51:09.528Z,15.44
2018-04-16T03:52:09.509Z,15.48
2018-04-16T03:53:09.564Z,15.45
2018-04-16T03:54:09.535Z,15.57
2018-04-16T03:55:09.598Z,15.50
2018-04-16T03:56:09.573Z,15.47
2018-04-16T03:57:09.579Z,15.48
2018-04-16T03:58:09.598Z,15.50
2018-04-16T03:59:09.616Z,15.48
2018-04-16T04:00:09.604Z,15.48
2018-04-16T04:01:09.612Z,15.48
2018-04-16T04:02:09.642Z,15.47
2018-04-16T04:03:09.644Z,15.48
2018-04-16T04:04:09.691Z,15.48
2018-04-16T04:05:09.663Z,15.51
2018-04-16T04:06:09.692Z,15.47
2018-04-16T04:07:09.684Z,15.47
2018-04-16T04:08:09.682Z,15.62
2018-04-16T04:09:09.785Z,15.51
2018-04-16T04:10:09.720Z,15.48
2018-04-16T04:11:09.738Z,15.48
2018-04-16T04:12:09.741Z,15.37
2018-04-16T04:13:09.775Z,15.43
2018-04-16T04:14:09.836Z,15.48
2018-04-16T04:15:09.768Z,15.36
2018-04-16T04:16:09.789Z,15.47
2018-04-16T04:17:09.814Z,15.35
2018-04-16T04:18:09.802Z,15.35
2018-04-16T04:19:09.810Z,15.47
2018-04-16T04:20:09.880Z,15.44
2018-04-16T04:21:09.829Z,15.41
2018-04-16T04:22:09.836Z,15.41
2018-04-16T04:23:09.853Z,15.41
2018-04-16T04:24:09.891Z,15.45
2018-04-16T04:25:09.927Z,15.50
2018-04-16T04:26:09.892Z,15.50
2018-04-16T04:27:09.898Z,15.51
2018-04-16T04:28:09.913Z,15.57
2018-04-16T04:29:09.914Z,15.55
2018-04-16T04:30:09.936Z,15.47
2018-04-16T04:31:09.985Z,15.45
2018-04-16T04:32:09.945Z,15.59
2018-04-16T04:33:09.976Z,15.51
2018-04-16T04:34:10.006Z,15.48
2018-04-16T04:35:09.991Z,15.47
2018-04-16T04:36:10.005Z,15.48
2018-04-16T04:37:09.998Z,15.50
2018-04-16T04:38:10.008Z,15.50
2018-04-16T04:39:10.107Z,15.48
2018-04-16T04:40:10.038Z,15.50
2018-04-16T04:41:10.044Z,15.41
2018-04-16T04:42:10.069Z,15.44
2018-04-16T04:43:10.067Z,15.44
2018-04-16T04:44:10.100Z,15.45
2018-04-16T04:45:10.220Z,15.41
2018-04-16T04:46:10.141Z,15.44
2018-04-16T04:47:10.113Z,15.45
2018-04-16T04:48:10.125Z,15.41
2018-04-16T04:49:10.129Z,15.44
2018-04-16T04:50:10.212Z,15.44
2018-04-16T04:51:10.163Z,15.44
2018-04-16T04:52:10.171Z,15.41
2018-04-16T04:53:10.210Z,15.30
2018-04-16T04:54:10.196Z,15.18
2018-04-16T04:55:10.226Z,15.30
2018-04-16T04:56:10.220Z,15.30
2018-04-16T04:57:10.226Z,15.43
2018-04-16T04:58:10.230Z,15.39
2018-04-16T04:59:10.246Z,15.30
2018-04-16T05:00:10.285Z,15.35
2018-04-16T05:01:10.276Z,15.36
2018-04-16T05:02:10.293Z,15.43
2018-04-16T05:03:10.285Z,15.43
2018-04-16T05:04:10.295Z,15.25
2018-04-16T05:05:10.325Z,15.22
2018-04-16T05:06:10.355Z,15.23
2018-04-16T05:07:10.333Z,15.25
2018-04-16T05:08:10.360Z,15.19
2018-04-16T05:09:10.348Z,15.35
2018-04-16T05:10:10.365Z,15.25
2018-04-16T05:11:10.394Z,15.41
2018-04-16T05:12:10.448Z,15.37
2018-04-16T05:13:10.439Z,15.43
2018-04-16T05:14:10.421Z,15.43
2018-04-16T05:15:10.416Z,15.32
2018-04-16T05:16:10.425Z,15.35
2018-04-16T05:17:10.432Z,15.39
2018-04-16T05:18:10.488Z,15.41
2018-04-16T05:19:10.488Z,15.39
2018-04-16T05:20:10.465Z,15.41
2018-04-16T05:21:10.775Z,15.47
2018-04-16T05:22:10.490Z,15.48
2018-04-16T05:23:10.508Z,15.50
2018-04-16T05:24:10.529Z,15.51
2018-04-16T05:25:10.522Z,15.50
2018-04-16T05:26:10.542Z,15.47
2018-04-16T05:27:10.564Z,15.47
2018-04-16T05:28:10.551Z,15.50
2018-04-16T05:29:10.578Z,15.48
2018-04-16T05:30:10.591Z,15.50
2018-04-16T05:31:10.612Z,15.48
2018-04-16T05:32:10.663Z,15.57
2018-04-16T05:33:10.607Z,15.62
2018-04-16T05:34:10.618Z,15.66
2018-04-16T05:35:10.651Z,15.65
2018-04-16T05:36:10.654Z,15.66
2018-04-16T05:37:10.668Z,15.72
2018-04-16T05:38:10.717Z,15.69
2018-04-16T05:39:10.688Z,15.69
2018-04-16T05:40:10.695Z,15.80
2018-04-16T05:41:10.715Z,15.75
2018-04-16T05:42:10.721Z,15.80
2018-04-16T05:43:10.773Z,15.70
2018-04-16T05:44:10.730Z,15.69
2018-04-16T05:45:10.745Z,15.78
2018-04-16T05:46:10.768Z,15.72
2018-04-16T05:47:10.763Z,15.69
2018-04-16T05:48:10.859Z,15.67
2018-04-16T05:49:10.791Z,15.73
2018-04-16T05:50:10.803Z,15.67
2018-04-16T05:51:10.813Z,15.67
2018-04-16T05:52:10.833Z,15.73
2018-04-16T05:53:10.835Z,15.78
2018-04-16T05:54:10.953Z,15.81
2018-04-16T05:55:10.923Z,15.83
2018-04-16T05:56:10.897Z,15.75
2018-04-16T05:57:10.883Z,15.72
2018-04-16T05:58:10.959Z,15.80
2018-04-16T05:59:10.938Z,15.85
2018-04-16T06:00:10.945Z,15.75
2018-04-16T06:01:10.946Z,15.78
2018-04-16T06:02:10.949Z,15.73
2018-04-16T06:03:10.965Z,15.81
2018-04-16T06:04:10.953Z,15.88
2018-04-16T06:05:11.035Z,15.83
2018-04-16T06:06:10.974Z,15.69
2018-04-16T06:07:10.988Z,15.80
2018-04-16T06:08:11.031Z,15.84
2018-04-16T06:09:10.998Z,15.80
2018-04-16T06:10:11.049Z,15.73
2018-04-16T06:11:11.025Z,15.73
2018-04-16T06:12:11.052Z,15.81
2018-04-16T06:13:11.046Z,15.81
2018-04-16T06:14:11.097Z,15.66
2018-04-16T06:15:11.104Z,15.73
2018-04-16T06:16:11.090Z,15.76
2018-04-16T06:17:11.113Z,15.67
2018-04-16T06:18:11.135Z,15.70
2018-04-16T06:19:11.198Z,15.62
2018-04-16T06:20:11.161Z,15.52
2018-04-16T06:21:11.154Z,15.59
2018-04-16T06:22:11.148Z,15.60
2018-04-16T06:23:11.171Z,15.51
2018-04-16T06:24:11.191Z,15.50
2018-04-16T06:25:11.202Z,15.45
2018-04-16T06:26:11.195Z,15.47
2018-04-16T06:27:11.255Z,15.50
2018-04-16T06:28:11.239Z,15.47
2018-04-16T06:29:11.227Z,15.41
2018-04-16T06:30:11.283Z,15.43
2018-04-16T06:31:11.254Z,15.39
2018-04-16T06:32:11.297Z,15.47
2018-04-16T06:33:11.267Z,15.45
2018-04-16T06:34:11.307Z,15.48
2018-04-16T06:35:11.310Z,15.45
2018-04-16T06:36:11.371Z,15.45
2018-04-16T06:37:11.313Z,15.47
2018-04-16T06:38:11.318Z,15.51
2018-04-16T06:39:11.354Z,15.44
2018-04-16T06:40:11.360Z,15.43
2018-04-16T06:41:11.382Z,15.44
2018-04-16T06:42:11.360Z,15.47
2018-04-16T06:43:11.431Z,15.44
2018-04-16T06:44:11.390Z,15.50
2018-04-16T06:45:11.410Z,15.48
2018-04-16T06:46:11.423Z,15.47
2018-04-16T06:47:11.420Z,15.50
2018-04-16T06:48:11.463Z,15.44
2018-04-16T06:49:11.449Z,15.37
2018-04-16T06:50:11.492Z,15.37
2018-04-16T06:51:11.457Z,15.36
2018-04-16T06:52:11.479Z,15.37
2018-04-16T06:53:11.512Z,15.23
2018-04-16T06:54:11.517Z,15.23
2018-04-16T06:55:11.538Z,15.19
2018-04-16T06:56:11.539Z,15.19
2018-04-16T06:57:11.573Z,15.27
2018-04-16T06:58:11.534Z,15.22
2018-04-16T06:59:11.574Z,15.14
2018-04-16T07:00:11.564Z,15.08
2018-04-16T07:01:11.578Z,15.10
2018-04-16T07:02:11.619Z,15.25
2018-04-16T07:03:11.656Z,15.22
2018-04-16T07:04:11.656Z,15.22
2018-04-16T07:05:11.646Z,15.36
2018-04-16T07:06:11.635Z,15.26
2018-04-16T07:07:11.672Z,15.26
2018-04-16T07:08:11.697Z,15.39
2018-04-16T07:09:11.657Z,15.37
2018-04-16T07:10:11.716Z,15.37
2018-04-16T07:11:11.680Z,15.35
2018-04-16T07:12:11.701Z,15.44
2018-04-16T07:13:11.755Z,15.47
2018-04-16T07:14:11.708Z,15.39
2018-04-16T07:15:11.712Z,15.43
2018-04-16T07:16:11.753Z,15.37
2018-04-16T07:17:11.753Z,15.47
2018-04-16T07:18:11.794Z,15.44
2018-04-16T07:19:11.789Z,15.47
2018-04-16T07:20:11.824Z,15.45
2018-04-16T07:21:11.787Z,15.45
2018-04-16T07:22:11.797Z,15.48
2018-04-16T07:23:11.873Z,15.54
2018-04-16T07:24:11.865Z,15.50
2018-04-16T07:25:11.822Z,15.54
2018-04-16T07:26:11.859Z,15.50
2018-04-16T07:27:11.872Z,15.65
2018-04-16T07:28:11.869Z,15.55
2018-04-16T07:29:11.909Z,15.60
2018-04-16T07:30:11.886Z,15.62
2018-04-16T07:31:11.898Z,15.63
2018-04-16T07:32:11.905Z,15.55
2018-04-16T07:33:11.915Z,15.55
2018-04-16T07:34:11.970Z,15.57
2018-04-16T07:35:11.937Z,15.57
2018-04-16T07:36:11.958Z,15.66
2018-04-16T07:37:11.970Z,15.63
2018-04-16T07:38:12.002Z,15.59
2018-04-16T07:39:12.040Z,15.66
2018-04-16T07:40:12.002Z,15.69
2018-04-16T07:41:12.017Z,15.60
2018-04-16T07:42:12.025Z,15.65
2018-04-16T07:43:12.029Z,15.57
2018-04-16T07:44:12.060Z,15.70
2018-04-16T07:45:12.105Z,15.70
2018-04-16T07:46:12.065Z,15.72
2018-04-16T07:47:12.076Z,15.72
2018-04-16T07:48:12.084Z,15.70
2018-04-16T07:49:12.086Z,15.67
2018-04-16T07:50:12.125Z,15.69
2018-04-16T07:51:12.157Z,15.75
2018-04-16T07:52:12.146Z,15.72
2018-04-16T07:53:12.134Z,15.69
2018-04-16T07:54:12.158Z,15.73
2018-04-16T07:55:12.168Z,15.72
2018-04-16T07:56:12.217Z,15.72
2018-04-16T07:57:12.200Z,15.72
2018-04-16T07:58:12.191Z,15.70
2018-04-16T07:59:12.207Z,15.67
2018-04-16T08:00:12.218Z,15.70
2018-04-16T08:01:12.250Z,15.72
2018-04-16T08:02:12.283Z,15.67
2018-04-16T08:03:12.278Z,15.65
2018-04-16T08:04:12.253Z,15.69
2018-04-16T08:05:12.268Z,15.72
2018-04-16T08:06:12.292Z,15.67
2018-04-16T08:07:12.356Z,15.76
2018-04-16T08:08:12.307Z,15.72
2018-04-16T08:09:12.370Z,15.66
2018-04-16T08:10:12.344Z,15.69
2018-04-16T08:11:12.328Z,15.63
2018-04-16T08:12:12.364Z,15.52
2018-04-16T08:13:12.370Z,15.59
2018-04-16T08:14:12.370Z,15.63
2018-04-16T08:15:12.404Z,15.45
2018-04-16T08:16:12.391Z,15.50
2018-04-16T08:17:12.395Z,15.59
2018-04-16T08:18:12.416Z,15.48
2018-04-16T08:19:12.421Z,15.50
2018-04-16T08:20:12.454Z,15.48
2018-04-16T08:21:12.451Z,15.55
2018-04-16T08:22:12.455Z,15.52
2018-04-16T08:23:12.478Z,15.59
2018-04-16T08:24:12.476Z,15.51
2018-04-16T08:25:12.525Z,15.59
2018-04-16T08:26:12.501Z,15.59
2018-04-16T08:27:12.516Z,15.48
2018-04-16T08:28:12.522Z,15.63
2018-04-16T08:29:12.552Z,15.62
2018-04-16T08:30:12.590Z,15.60
2018-04-16T08:31:12.566Z,15.54
2018-04-16T08:32:12.579Z,15.69
2018-04-16T08:33:12.588Z,15.65
2018-04-16T08:34:12.584Z,15.63
2018-04-16T08:35:12.628Z,15.60
2018-04-16T08:36:12.615Z,15.69
2018-04-16T08:37:12.620Z,15.67
2018-04-16T08:38:12.637Z,15.67
2018-04-16T08:39:12.653Z,15.70
2018-04-16T08:40:12.696Z,15.72
2018-04-16T08:41:12.654Z,15.72
2018-04-16T08:42:12.683Z,15.78
2018-04-16T08:43:12.688Z,15.67
2018-04-16T08:44:12.689Z,15.67
2018-04-16T08:45:12.771Z,15.65
2018-04-16T08:46:12.728Z,15.72
2018-04-16T08:47:12.743Z,15.81
2018-04-16T08:48:12.745Z,15.78
2018-04-16T08:49:12.755Z,15.69
2018-04-16T08:50:12.798Z,15.65
2018-04-16T08:51:12.814Z,15.72
2018-04-16T08:52:12.785Z,15.76
2018-04-16T08:53:12.813Z,15.65
2018-04-16T08:54:12.797Z,15.67
2018-04-16T08:55:12.849Z,15.69
2018-04-16T08:56:12.876Z,15.69
2018-04-16T08:57:12.871Z,15.65
2018-04-16T08:58:12.873Z,15.75
2018-04-16T08:59:12.889Z,15.78
2018-04-16T09:00:12.882Z,15.83
2018-04-16T09:01:12.937Z,15.76
2018-04-16T09:02:12.911Z,15.78
2018-04-16T09:03:12.920Z,15.81
2018-04-16T09:04:12.926Z,15.78
2018-04-16T09:05:12.940Z,15.72
2018-04-16T09:06:12.967Z,15.69
2018-04-16T09:07:12.968Z,15.72
2018-04-16T09:08:12.958Z,15.65
2018-04-16T09:09:12.995Z,15.65
2018-04-16T09:10:12.980Z,15.57
2018-04-16T09:11:13.053Z,15.66
2018-04-16T09:12:13.009Z,15.67
2018-04-16T09:13:13.054Z,15.66
2018-04-16T09:14:13.050Z,15.57
2018-04-16T09:15:13.038Z,15.62
2018-04-16T09:16:13.094Z,15.59
2018-04-16T09:17:13.106Z,15.59
2018-04-16T09:18:13.075Z,15.70
2018-04-16T09:19:13.117Z,15.66
2018-04-16T09:20:13.133Z,15.63
2018-04-16T09:21:13.096Z,15.65
2018-04-16T09:22:13.138Z,15.66
2018-04-16T09:23:13.120Z,15.67
2018-04-16T09:24:13.168Z,15.70
2018-04-16T09:25:13.159Z,15.72
2018-04-16T09:26:13.168Z,15.65
2018-04-16T09:27:13.200Z,15.66
2018-04-16T09:28:13.185Z,15.69
2018-04-16T09:29:13.193Z,15.69
2018-04-16T09:30:13.205Z,15.67
2018-04-16T09:31:13.246Z,15.67
2018-04-16T09:32:13.246Z,15.72
2018-04-16T09:33:13.289Z,15.48
2018-04-16T09:34:13.254Z,15.65
2018-04-16T09:35:13.265Z,15.69
2018-04-16T09:36:13.284Z,15.57
2018-04-16T09:37:13.287Z,15.57
2018-04-16T09:38:13.335Z,15.60
2018-04-16T09:39:13.374Z,15.69
2018-04-16T09:40:13.312Z,15.69
2018-04-16T09:41:13.334Z,15.67
2018-04-16T09:42:13.357Z,15.75
2018-04-16T09:43:13.375Z,15.78
2018-04-16T09:44:13.365Z,15.78
2018-04-16T09:45:13.414Z,15.85
2018-04-16T09:46:13.390Z,15.78
2018-04-16T09:47:13.386Z,15.90
2018-04-16T09:48:13.402Z,15.85
2018-04-16T09:49:13.426Z,15.85
2018-04-16T09:50:13.460Z,15.81
2018-04-16T09:51:13.435Z,15.73
2018-04-16T09:52:13.447Z,15.80
2018-04-16T09:53:13.481Z,15.81
2018-04-16T09:54:13.465Z,15.73
2018-04-16T09:55:13.516Z,15.78
2018-04-16T09:56:13.505Z,15.87
2018-04-16T09:57:13.551Z,15.98
2018-04-16T09:58:13.509Z,15.94
2018-04-16T09:59:13.526Z,15.92
2018-04-16T10:00:13.592Z,15.98
2018-04-16T10:01:13.616Z,16.02
2018-04-16T10:02:13.578Z,15.94
2018-04-16T10:03:13.590Z,15.99
2018-04-16T10:04:13.583Z,16.02
2018-04-16T10:05:13.592Z,16.00
2018-04-16T10:06:13.667Z,16.00
2018-04-16T10:07:13.628Z,16.18
2018-04-16T10:08:13.647Z,16.16
2018-04-16T10:09:13.642Z,16.09
2018-04-16T10:10:13.655Z,15.94
2018-04-16T10:11:13.713Z,15.96
2018-04-16T10:12:13.739Z,15.96
2018-04-16T10:13:13.692Z,16.06
2018-04-16T10:14:13.712Z,16.12
2018-04-16T10:15:13.712Z,16.16
2018-04-16T10:16:13.714Z,16.12
2018-04-16T10:17:13.773Z,16.16
2018-04-16T10:18:13.737Z,16.17
2018-04-16T10:19:13.760Z,16.17
2018-04-16T10:20:13.775Z,16.21
2018-04-16T10:21:13.777Z,16.22
2018-04-16T10:22:13.832Z,16.13
2018-04-16T10:23:13.841Z,16.21
2018-04-16T10:24:13.822Z,16.18
2018-04-16T10:25:13.827Z,16.26
2018-04-16T10:26:13.835Z,16.18
2018-04-16T10:27:13.867Z,16.25
2018-04-16T10:28:13.892Z,16.37
2018-04-16T10:29:13.870Z,16.28
2018-04-16T10:30:13.895Z,16.29
2018-04-16T10:31:13.890Z,16.34
2018-04-16T10:32:13.899Z,16.34
2018-04-16T10:33:13.969Z,16.34
2018-04-16T10:34:13.999Z,16.44
2018-04-16T10:35:13.937Z,16.47
2018-04-16T10:36:13.948Z,16.29
2018-04-16T10:37:13.961Z,16.43
2018-04-16T10:38:14.012Z,16.40
2018-04-16T10:39:13.987Z,16.40
2018-04-16T10:40:13.990Z,16.51
2018-04-16T10:41:14.010Z,16.50
2018-04-16T10:42:14.018Z,16.55
2018-04-16T10:43:14.068Z,16.55
2018-04-16T10:44:14.042Z,16.69
2018-04-16T10:45:14.065Z,16.65
2018-04-16T10:46:14.068Z,16.74
2018-04-16T10:47:14.091Z,16.69
2018-04-16T10:48:14.147Z,16.83
2018-04-16T10:49:14.120Z,16.84
2018-04-16T10:50:14.103Z,16.92
2018-04-16T10:51:14.130Z,16.84
2018-04-16T10:52:14.127Z,16.87
2018-04-16T10:53:14.176Z,16.82
2018-04-16T10:54:14.241Z,16.91
2018-04-16T10:55:14.174Z,16.89
2018-04-16T10:56:14.179Z,16.91
2018-04-16T10:57:14.196Z,16.92
2018-04-16T10:58:14.204Z,16.95
2018-04-16T10:59:14.229Z,17.07
2018-04-16T11:00:14.268Z,17.09
2018-04-16T11:01:14.257Z,17.16
2018-04-16T11:02:14.253Z,17.23
2018-04-16T11:03:14.254Z,17.22
2018-04-16T11:04:14.293Z,17.20
2018-04-16T11:05:14.806Z,17.17
2018-04-16T11:06:14.353Z,17.23
2018-04-16T11:07:14.468Z,17.32
2018-04-16T11:08:14.326Z,17.23
2018-04-16T11:09:14.342Z,17.31
2018-04-16T11:10:14.363Z,17.22
2018-04-16T11:11:14.373Z,17.23
2018-04-16T11:12:14.368Z,17.39
2018-04-16T11:13:14.430Z,17.37
2018-04-16T11:14:14.389Z,17.35
2018-04-16T11:15:14.445Z,17.34
2018-04-16T11:16:14.439Z,17.34
2018-04-16T11:17:14.432Z,17.37
2018-04-16T11:18:14.437Z,17.42
2018-04-16T11:19:14.518Z,17.42
2018-04-16T11:20:14.488Z,17.39
2018-04-16T11:21:14.519Z,17.39
2018-04-16T11:22:14.497Z,17.52
2018-04-16T11:23:14.504Z,17.56
2018-04-16T11:24:14.526Z,17.65
2018-04-16T11:25:14.550Z,17.63
2018-04-16T11:26:14.594Z,17.59
2018-04-16T11:27:14.550Z,17.66
2018-04-16T11:28:14.559Z,17.65
2018-04-16T11:29:14.573Z,17.56
2018-04-16T11:30:14.634Z,17.60
2018-04-16T11:31:14.632Z,17.54
2018-04-16T11:32:14.643Z,17.56
2018-04-16T11:33:14.636Z,17.59
2018-04-16T11:34:14.643Z,17.57
2018-04-16T11:35:14.648Z,17.63
2018-04-16T11:36:14.694Z,17.63
2018-04-16T11:37:14.684Z,17.68
2018-04-16T11:38:14.683Z,17.76
2018-04-16T11:39:14.719Z,17.76
2018-04-16T11:40:14.724Z,17.80
2018-04-16T11:41:14.791Z,17.72
2018-04-16T11:42:14.730Z,17.78
2018-04-16T11:43:14.745Z,17.75
2018-04-16T11:44:14.762Z,17.82
2018-04-16T11:45:14.778Z,17.87
2018-04-16T11:46:14.828Z,17.87
2018-04-16T11:47:14.821Z,17.90
2018-04-16T11:48:14.811Z,17.94
2018-04-16T11:49:14.823Z,18.00
2018-04-16T11:50:14.822Z,17.95
2018-04-16T11:51:14.992Z,18.03
2018-04-16T11:52:14.913Z,17.90
2018-04-16T11:53:14.863Z,17.94
2018-04-16T11:54:14.888Z,17.97
2018-04-16T11:55:14.904Z,18.00
2018-04-16T11:56:14.934Z,18.08
2018-04-16T11:57:14.949Z,18.08
2018-04-16T11:58:14.963Z,18.02
2018-04-16T11:59:14.988Z,18.15
2018-04-16T12:00:14.961Z,18.16
2018-04-16T12:01:14.963Z,18.23
2018-04-16T12:02:15.002Z,18.28
2018-04-16T12:03:15.003Z,18.31
2018-04-16T12:04:15.117Z,18.31
2018-04-16T12:05:15.026Z,18.28
2018-04-16T12:06:15.044Z,18.36
2018-04-16T12:07:15.047Z,18.39
2018-04-16T12:08:15.062Z,18.28
2018-04-16T12:09:15.120Z,18.34
2018-04-16T12:10:15.072Z,18.43
2018-04-16T12:11:15.096Z,18.55
2018-04-16T12:12:15.141Z,18.48
2018-04-16T12:13:15.122Z,18.53
2018-04-16T12:14:15.175Z,18.63
2018-04-16T12:15:15.139Z,18.53
2018-04-16T12:16:15.158Z,18.57
2018-04-16T12:17:15.175Z,18.49
2018-04-16T12:18:15.190Z,18.66
2018-04-16T12:19:15.245Z,18.71
2018-04-16T12:20:15.210Z,18.76
2018-04-16T12:21:15.243Z,18.79
2018-04-16T12:22:15.253Z,18.53
2018-04-16T12:23:15.301Z,18.61
2018-04-16T12:24:15.282Z,18.67
2018-04-16T12:25:15.278Z,18.70
2018-04-16T12:26:15.277Z,18.66
2018-04-16T12:27:15.302Z,18.60
2018-04-16T12:28:15.310Z,18.74
2018-04-16T12:29:15.360Z,18.74
2018-04-16T12:30:15.332Z,18.79
2018-04-16T12:31:15.363Z,18.81
2018-04-16T12:32:15.362Z,18.83
2018-04-16T12:33:15.373Z,18.83
2018-04-16T12:34:15.426Z,18.70
2018-04-16T12:35:15.409Z,18.74
2018-04-16T12:36:15.440Z,18.78
2018-04-16T12:37:15.423Z,18.71
2018-04-16T12:38:15.471Z,18.74
2018-04-16T12:39:15.466Z,18.82
2018-04-16T12:40:15.467Z,18.79
2018-04-16T12:41:15.483Z,18.82
2018-04-16T12:42:15.492Z,18.78
2018-04-16T12:43:15.500Z,18.76
2018-04-16T12:44:15.577Z,18.79
2018-04-16T12:45:15.533Z,18.74
2018-04-16T12:46:15.555Z,18.79
2018-04-16T12:47:15.550Z,18.83
2018-04-16T12:48:15.554Z,18.71
2018-04-16T12:49:15.590Z,18.83
2018-04-16T12:50:15.658Z,18.82
2018-04-16T12:51:15.604Z,18.76
2018-04-16T12:52:15.621Z,18.86